Airport ICAO


00:46 UTC

0°C

Scattered clouds


An affordable passengers' Moving Map for your aircraft. Made for the iPad and the iPhone
More information here

LFLY Bron


Lyon FRANCE   VFR


METAR LFLY 230030Z AUTO 34006KT 330V040 8000 SCT043 M00/M06 Q1010 NOSIG 0h16min

TAF LFLY 222300Z 2300/2324 33006KT 8000 OVC045 BECMG 2313/2316 NSC 1h46min





NOTAMS

OPEN